Time;durP1;ratioP1;P1;durP2;ratioP2;P2;SDS_P1;SDS_P2;PMS_P1;PMS_P2;Temp;Humidity;BMP_temperature;BMP_pressure;BME280_temperature;BME280_humidity;BME280_pressure;Samples;Min_cycle;Max_cycle;Signal;HPM_P1;HPM_P2
2023/03/18 00:00:38;;;;;;;3.63;2.53;;;;;;;;;;4922352;29;20410;-79
2023/03/18 00:03:05;;;;;;;8.98;2.90;;;;;;;;;;4921642;29;20422;-80
2023/03/18 00:05:31;;;;;;;6.38;2.60;;;;;;;;;;4905445;29;20191;-80
2023/03/18 00:07:58;;;;;;;9.70;2.90;;;;;;;;;;4921589;29;20171;-77
2023/03/18 00:10:24;;;;;;;5.68;3.40;;;;;;;;;;4922270;29;20398;-80
2023/03/18 00:12:52;;;;;;;3.83;2.70;;;;;;;;;;4921458;29;20629;-80
2023/03/18 00:15:18;;;;;;;5.32;2.90;;;;;;;;;;4921861;29;20899;-79
2023/03/18 00:17:44;;;;;;;13.67;3.57;;;;;;;;;;4921447;29;20205;-79
2023/03/18 00:20:11;;;;;;;6.10;3.10;;;;;;;;;;4921611;29;20465;-79
2023/03/18 00:22:38;;;;;;;4.28;2.97;;;;;;;;;;4904772;29;20205;-79
2023/03/18 00:25:05;;;;;;;6.45;2.72;;;;;;;;;;4921527;29;20273;-79
2023/03/18 00:27:32;;;;;;;5.77;3.10;;;;;;;;;;4921924;29;20178;-79
2023/03/18 00:29:58;;;;;;;13.88;3.28;;;;;;;;;;4921483;29;20402;-79
2023/03/18 00:32:28;;;;;;;7.85;3.17;;;;;;;;;;4921423;29;20730;-79
2023/03/18 00:34:55;;;;;;;6.53;2.87;;;;;;;;;;4921345;29;20183;-79
2023/03/18 00:37:29;;;;;;;8.03;2.70;;;;;;;;;;4921423;29;20980;-79
2023/03/18 00:40:09;;;;;;;6.45;2.78;;;;;;;;;;4921227;29;20414;-80
2023/03/18 00:42:38;;;;;;;4.20;2.92;;;;;;;;;;4903729;29;20193;-79
2023/03/18 00:45:06;;;;;;;5.88;2.67;;;;;;;;;;4920394;29;20261;-79
2023/03/18 00:47:32;;;;;;;5.93;2.80;;;;;;;;;;4921353;29;20229;-79
2023/03/18 00:49:58;;;;;;;8.60;3.55;;;;;;;;;;4920851;29;20176;-79
2023/03/18 00:52:24;;;;;;;4.85;3.17;;;;;;;;;;4921057;29;20634;-79
2023/03/18 00:54:50;;;;;;;5.00;2.80;;;;;;;;;;4903890;29;20241;-79
2023/03/18 00:57:17;;;;;;;5.37;2.70;;;;;;;;;;4921309;29;20748;-79
2023/03/18 00:59:43;;;;;;;5.72;2.85;;;;;;;;;;4904207;29;20865;-79
2023/03/18 01:02:09;;;;;;;5.13;3.35;;;;;;;;;;4920421;29;20595;-79
2023/03/18 01:04:35;;;;;;;5.13;3.10;;;;;;;;;;4921585;29;20193;-79
2023/03/18 01:07:01;;;;;;;5.47;3.08;;;;;;;;;;4920896;29;20418;-79
2023/03/18 01:09:27;;;;;;;4.78;3.47;;;;;;;;;;4920816;29;20178;-79
2023/03/18 01:11:53;;;;;;;6.45;3.10;;;;;;;;;;4920811;29;20218;-79
2023/03/18 01:14:19;;;;;;;6.53;3.28;;;;;;;;;;4920977;29;20186;-79
2023/03/18 01:16:46;;;;;;;7.43;3.03;;;;;;;;;;4888329;29;20194;-79
2023/03/18 01:19:12;;;;;;;7.80;3.33;;;;;;;;;;4920894;29;20436;-79
2023/03/18 01:21:39;;;;;;;5.47;3.30;;;;;;;;;;4921224;29;20516;-79
2023/03/18 01:24:05;;;;;;;6.95;2.95;;;;;;;;;;4903264;29;20191;-79
2023/03/18 01:26:31;;;;;;;7.70;3.42;;;;;;;;;;4921068;29;20198;-79
2023/03/18 01:28:58;;;;;;;7.28;3.15;;;;;;;;;;4919869;29;20185;-79
2023/03/18 01:31:24;;;;;;;6.57;3.50;;;;;;;;;;4920662;29;20682;-79
2023/03/18 01:33:51;;;;;;;4.40;2.85;;;;;;;;;;4920573;29;20182;-79
2023/03/18 01:36:17;;;;;;;5.53;3.15;;;;;;;;;;4920411;29;20241;-79
2023/03/18 01:38:43;;;;;;;6.78;3.72;;;;;;;;;;4920147;29;20214;-79
2023/03/18 01:41:10;;;;;;;11.05;3.47;;;;;;;;;;4920215;29;20174;-79
2023/03/18 01:43:39;;;;;;;8.98;2.95;;;;;;;;;;4920275;29;20237;-79
2023/03/18 01:46:24;;;;;;;6.90;4.07;;;;;;;;;;4920221;29;20233;-78
2023/03/18 01:48:50;;;;;;;6.50;3.40;;;;;;;;;;4920090;29;20189;-79
2023/03/18 01:51:18;;;;;;;5.78;3.60;;;;;;;;;;4920123;29;20217;-79
2023/03/18 01:53:46;;;;;;;4.25;3.00;;;;;;;;;;4920201;29;20171;-79
2023/03/18 01:56:13;;;;;;;6.57;3.47;;;;;;;;;;4919696;29;20182;-79
2023/03/18 01:58:44;;;;;;;6.68;3.47;;;;;;;;;;4920347;29;20253;-79
2023/03/18 02:01:19;;;;;;;6.25;3.47;;;;;;;;;;4919674;29;20235;-79
2023/03/18 02:03:47;;;;;;;6.03;3.47;;;;;;;;;;4919894;29;20187;-79
2023/03/18 02:06:13;;;;;;;6.15;4.00;;;;;;;;;;4903434;29;20249;-79
2023/03/18 02:08:39;;;;;;;5.50;3.88;;;;;;;;;;4919792;29;20206;-79
2023/03/18 02:11:06;;;;;;;5.72;3.67;;;;;;;;;;4919557;29;20167;-79
2023/03/18 02:13:34;;;;;;;8.80;4.00;;;;;;;;;;4919959;29;20528;-79
2023/03/18 02:16:09;;;;;;;10.18;4.00;;;;;;;;;;4919666;29;20175;-79
2023/03/18 02:18:38;;;;;;;4.35;3.75;;;;;;;;;;4902678;29;20650;-79
2023/03/18 02:21:10;;;;;;;10.32;4.22;;;;;;;;;;4919819;29;20261;-79
2023/03/18 02:23:48;;;;;;;6.07;3.80;;;;;;;;;;4919893;29;20182;-79
2023/03/18 02:26:17;;;;;;;9.23;4.10;;;;;;;;;;4919907;29;20575;-79
2023/03/18 02:28:43;;;;;;;6.72;4.03;;;;;;;;;;4919833;29;20293;-79
2023/03/18 02:31:11;;;;;;;9.85;4.05;;;;;;;;;;4918983;29;20277;-79
2023/03/18 02:33:38;;;;;;;6.60;3.88;;;;;;;;;;4919235;29;20181;-79
2023/03/18 02:36:09;;;;;;;10.82;4.13;;;;;;;;;;4918652;29;20226;-79
2023/03/18 02:38:35;;;;;;;4.38;3.90;;;;;;;;;;4919770;29;20177;-79
2023/03/18 02:41:01;;;;;;;5.03;3.60;;;;;;;;;;4902502;29;20566;-79
2023/03/18 02:43:31;;;;;;;6.15;3.97;;;;;;;;;;4902793;29;20213;-79
2023/03/18 02:45:57;;;;;;;8.55;4.53;;;;;;;;;;4919187;29;20249;-79
2023/03/18 02:48:25;;;;;;;6.63;4.32;;;;;;;;;;4919244;29;20202;-79
2023/03/18 02:50:52;;;;;;;6.68;3.85;;;;;;;;;;4918998;29;20546;-79
2023/03/18 02:53:18;;;;;;;7.38;4.13;;;;;;;;;;4919240;29;20206;-79
2023/03/18 02:55:45;;;;;;;8.63;4.30;;;;;;;;;;4902241;29;20694;-79
2023/03/18 02:58:11;;;;;;;7.70;4.25;;;;;;;;;;4902071;29;20193;-79
2023/03/18 03:00:37;;;;;;;8.25;4.50;;;;;;;;;;4919362;29;20175;-79
2023/03/18 03:03:04;;;;;;;6.80;4.30;;;;;;;;;;4886265;29;20587;-79
2023/03/18 03:05:30;;;;;;;8.00;4.90;;;;;;;;;;4918632;29;20182;-79
2023/03/18 03:07:56;;;;;;;6.05;3.70;;;;;;;;;;4901386;29;20190;-79
2023/03/18 03:10:22;;;;;;;5.28;3.85;;;;;;;;;;4902143;29;20643;-79
2023/03/18 03:12:48;;;;;;;10.57;5.05;;;;;;;;;;4918588;29;20308;-79
2023/03/18 03:15:14;;;;;;;5.10;4.60;;;;;;;;;;4918263;29;20189;-79
2023/03/18 03:17:40;;;;;;;5.68;4.30;;;;;;;;;;4902239;29;20175;-79
2023/03/18 03:20:07;;;;;;;6.90;4.20;;;;;;;;;;4918578;29;20274;-79
2023/03/18 03:22:34;;;;;;;11.35;5.03;;;;;;;;;;4919159;29;20182;-79
2023/03/18 03:25:01;;;;;;;8.82;4.05;;;;;;;;;;4918403;29;20226;-79
2023/03/18 03:27:27;;;;;;;7.70;4.63;;;;;;;;;;4918575;29;20189;-79
2023/03/18 03:29:54;;;;;;;6.47;5.38;;;;;;;;;;4918655;29;20182;-79
2023/03/18 03:32:20;;;;;;;10.50;4.80;;;;;;;;;;4918624;29;20729;-79
2023/03/18 03:34:46;;;;;;;6.25;4.07;;;;;;;;;;4902051;29;20190;-80
2023/03/18 03:37:12;;;;;;;8.88;4.90;;;;;;;;;;4918115;29;20238;-79
2023/03/18 03:39:39;;;;;;;6.90;5.95;;;;;;;;;;4918640;29;20190;-80
2023/03/18 03:42:05;;;;;;;10.70;5.25;;;;;;;;;;4918213;29;20185;-80
2023/03/18 03:44:31;;;;;;;7.05;4.15;;;;;;;;;;4918130;29;20198;-79
2023/03/18 03:46:57;;;;;;;6.32;4.35;;;;;;;;;;4886214;29;20276;-79
2023/03/18 03:49:24;;;;;;;6.57;4.60;;;;;;;;;;4886159;29;20218;-79
2023/03/18 03:51:50;;;;;;;7.40;4.50;;;;;;;;;;4918496;29;20727;-79
2023/03/18 03:54:16;;;;;;;6.97;5.03;;;;;;;;;;4901528;29;20190;-79
2023/03/18 03:56:42;;;;;;;6.13;4.90;;;;;;;;;;4918449;29;20234;-79
2023/03/18 03:59:09;;;;;;;7.20;5.40;;;;;;;;;;4917961;29;20515;-79
2023/03/18 04:01:35;;;;;;;9.93;5.25;;;;;;;;;;4918568;29;20186;-79
2023/03/18 04:04:01;;;;;;;6.97;5.25;;;;;;;;;;4918033;29;20186;-79
2023/03/18 04:06:28;;;;;;;8.43;5.53;;;;;;;;;;4918339;29;20190;-79
2023/03/18 04:08:54;;;;;;;6.75;5.30;;;;;;;;;;4918463;29;20178;-79
2023/03/18 04:11:20;;;;;;;7.25;5.78;;;;;;;;;;4918317;29;20582;-79
2023/03/18 04:13:47;;;;;;;8.18;6.20;;;;;;;;;;4918453;29;20667;-79
2023/03/18 04:16:13;;;;;;;6.80;5.22;;;;;;;;;;4917897;29;20174;-79
2023/03/18 04:18:39;;;;;;;12.98;6.45;;;;;;;;;;4919585;29;20178;-79
2023/03/18 04:21:06;;;;;;;8.27;5.90;;;;;;;;;;4921882;29;20257;-79
2023/03/18 04:23:33;;;;;;;9.48;6.03;;;;;;;;;;4905277;29;20249;-79
2023/03/18 04:25:59;;;;;;;7.85;6.25;;;;;;;;;;4921482;29;20205;-80
2023/03/18 04:28:25;;;;;;;12.07;6.72;;;;;;;;;;4921881;29;20202;-79
2023/03/18 04:30:51;;;;;;;7.07;5.95;;;;;;;;;;4904807;29;20210;-79
2023/03/18 04:33:18;;;;;;;16.15;6.45;;;;;;;;;;4921483;29;20229;-79
2023/03/18 04:35:44;;;;;;;7.60;6.10;;;;;;;;;;4904515;29;20337;-79
2023/03/18 04:38:10;;;;;;;10.32;6.38;;;;;;;;;;4921447;29;20261;-79
2023/03/18 04:40:37;;;;;;;7.32;6.63;;;;;;;;;;4904799;29;20557;-79
2023/03/18 04:43:03;;;;;;;13.65;6.75;;;;;;;;;;4921555;29;20194;-79
2023/03/18 04:45:29;;;;;;;8.55;6.45;;;;;;;;;;4921270;29;20201;-79
2023/03/18 04:47:55;;;;;;;12.88;7.18;;;;;;;;;;4921945;29;20182;-79
2023/03/18 04:50:21;;;;;;;8.98;6.85;;;;;;;;;;4921627;29;20182;-79
2023/03/18 04:52:47;;;;;;;10.32;6.75;;;;;;;;;;4921462;29;20210;-79
2023/03/18 04:55:16;;;;;;;9.60;6.90;;;;;;;;;;4904590;29;20178;-79
2023/03/18 04:57:43;;;;;;;14.55;7.05;;;;;;;;;;4921694;29;20218;-79
2023/03/18 05:00:11;;;;;;;9.38;6.07;;;;;;;;;;4904327;29;20186;-79
2023/03/18 05:02:38;;;;;;;11.75;7.70;;;;;;;;;;4921686;29;20254;-79
2023/03/18 05:05:04;;;;;;;8.80;7.78;;;;;;;;;;4920876;29;20205;-79
2023/03/18 05:07:30;;;;;;;9.82;7.57;;;;;;;;;;4903822;29;20189;-79
2023/03/18 05:09:57;;;;;;;8.55;6.97;;;;;;;;;;4920879;29;20214;-79
2023/03/18 05:12:24;;;;;;;10.50;7.47;;;;;;;;;;4920421;29;20288;-80
2023/03/18 05:14:50;;;;;;;8.70;6.82;;;;;;;;;;4904502;29;20202;-79
2023/03/18 05:17:17;;;;;;;12.40;7.03;;;;;;;;;;4920725;29;20186;-79
2023/03/18 05:19:44;;;;;;;11.65;7.00;;;;;;;;;;4903907;29;20178;-79
2023/03/18 05:22:10;;;;;;;8.68;6.80;;;;;;;;;;4920863;29;20535;-78
2023/03/18 05:24:36;;;;;;;11.15;7.50;;;;;;;;;;4921069;29;20182;-79
2023/03/18 05:27:03;;;;;;;10.43;7.38;;;;;;;;;;4920525;29;20201;-79
2023/03/18 05:29:29;;;;;;;9.65;7.13;;;;;;;;;;4920845;29;20182;-78
2023/03/18 05:31:55;;;;;;;13.25;8.00;;;;;;;;;;4920840;29;20547;-79
2023/03/18 05:34:21;;;;;;;10.82;7.60;;;;;;;;;;4920571;29;20713;-78
2023/03/18 05:36:47;;;;;;;9.82;7.80;;;;;;;;;;4920786;29;20583;-78
2023/03/18 05:39:13;;;;;;;11.50;8.15;;;;;;;;;;4920230;29;20189;-79
2023/03/18 05:41:39;;;;;;;10.27;7.25;;;;;;;;;;4904366;29;20184;-78
2023/03/18 05:44:06;;;;;;;10.50;7.90;;;;;;;;;;4920534;29;20242;-79
2023/03/18 05:46:32;;;;;;;12.80;7.97;;;;;;;;;;4920863;29;20186;-79
2023/03/18 05:48:58;;;;;;;11.23;8.38;;;;;;;;;;4888072;29;20237;-78
2023/03/18 05:51:25;;;;;;;8.57;6.97;;;;;;;;;;4903203;29;20220;-79
2023/03/18 05:53:51;;;;;;;14.85;8.45;;;;;;;;;;4920650;29;20213;-78
2023/03/18 05:56:17;;;;;;;10.10;7.30;;;;;;;;;;4920634;29;20178;-78
2023/03/18 05:58:44;;;;;;;10.20;7.90;;;;;;;;;;4920835;29;20178;-79
2023/03/18 06:01:12;;;;;;;10.23;6.72;;;;;;;;;;4920631;29;20540;-79
2023/03/18 06:03:39;;;;;;;8.48;7.07;;;;;;;;;;4920398;29;20206;-78
2023/03/18 06:06:05;;;;;;;10.85;7.20;;;;;;;;;;4903512;29;20190;-78
2023/03/18 06:08:31;;;;;;;11.88;6.85;;;;;;;;;;4920893;29;20178;-78
2023/03/18 06:10:57;;;;;;;11.68;6.80;;;;;;;;;;4903687;29;20182;-79
2023/03/18 06:13:24;;;;;;;6.35;5.75;;;;;;;;;;4919958;29;20620;-78
2023/03/18 06:15:55;;;;;;;8.35;6.45;;;;;;;;;;4903521;29;20191;-79
2023/03/18 06:18:21;;;;;;;6.93;6.00;;;;;;;;;;4919989;29;20182;-79
2023/03/18 06:20:48;;;;;;;7.45;6.00;;;;;;;;;;4919877;29;20189;-79
2023/03/18 06:23:14;;;;;;;6.70;5.22;;;;;;;;;;4920018;29;20598;-79
2023/03/18 06:25:40;;;;;;;11.27;7.20;;;;;;;;;;4903255;29;20635;-79
2023/03/18 06:28:07;;;;;;;8.48;5.75;;;;;;;;;;4920027;29;20182;-79
2023/03/18 06:30:33;;;;;;;9.98;6.22;;;;;;;;;;4902712;29;20197;-79
2023/03/18 06:32:59;;;;;;;9.30;5.78;;;;;;;;;;4919693;29;20253;-79
2023/03/18 06:35:27;;;;;;;6.50;5.75;;;;;;;;;;4919583;29;20292;-78
2023/03/18 06:37:53;;;;;;;10.18;5.82;;;;;;;;;;4920176;29;20186;-79
2023/03/18 06:40:19;;;;;;;7.97;5.88;;;;;;;;;;4919241;29;20265;-79
2023/03/18 06:42:45;;;;;;;10.52;6.43;;;;;;;;;;4919550;29;20261;-79
2023/03/18 06:45:12;;;;;;;7.40;6.38;;;;;;;;;;4902577;29;20186;-79
2023/03/18 06:47:39;;;;;;;8.10;6.25;;;;;;;;;;4902659;29;20178;-79
2023/03/18 06:50:05;;;;;;;7.65;6.82;;;;;;;;;;4919733;29;20201;-79
2023/03/18 06:52:32;;;;;;;8.35;7.00;;;;;;;;;;4919556;29;20688;-79
2023/03/18 06:54:59;;;;;;;10.88;6.88;;;;;;;;;;4903186;29;20182;-79
2023/03/18 06:57:25;;;;;;;11.68;8.05;;;;;;;;;;4919415;29;20194;-79
2023/03/18 06:59:52;;;;;;;9.85;7.10;;;;;;;;;;4919711;29;20178;-79
2023/03/18 07:02:19;;;;;;;9.75;7.00;;;;;;;;;;4919719;29;20189;-79
2023/03/18 07:04:45;;;;;;;10.98;7.50;;;;;;;;;;4902629;29;20186;-79
2023/03/18 07:07:11;;;;;;;11.73;8.02;;;;;;;;;;4902351;29;20197;-79
2023/03/18 07:09:38;;;;;;;10.60;7.40;;;;;;;;;;4919264;29;20183;-79
2023/03/18 07:12:05;;;;;;;11.75;7.43;;;;;;;;;;4919188;29;20201;-79
2023/03/18 07:14:31;;;;;;;10.15;7.57;;;;;;;;;;4919211;29;20190;-79
2023/03/18 07:16:57;;;;;;;13.38;8.45;;;;;;;;;;4919878;29;20182;-79
2023/03/18 07:19:23;;;;;;;8.98;7.78;;;;;;;;;;4901956;29;20234;-79
2023/03/18 07:21:49;;;;;;;9.70;7.88;;;;;;;;;;4919284;29;20269;-79
2023/03/18 07:24:16;;;;;;;14.27;8.07;;;;;;;;;;4919467;29;20214;-79
2023/03/18 07:26:42;;;;;;;10.23;7.88;;;;;;;;;;4919451;29;20181;-79
2023/03/18 07:29:09;;;;;;;10.73;7.97;;;;;;;;;;4902510;29;20178;-79
2023/03/18 07:31:35;;;;;;;12.63;8.35;;;;;;;;;;4919463;29;20258;-79
2023/03/18 07:34:02;;;;;;;9.65;7.93;;;;;;;;;;4919323;29;20198;-79
2023/03/18 07:36:28;;;;;;;7.68;6.88;;;;;;;;;;4887133;29;21096;-79
2023/03/18 07:38:55;;;;;;;10.20;6.90;;;;;;;;;;4919645;29;20182;-79
2023/03/18 07:41:21;;;;;;;7.05;6.35;;;;;;;;;;4919357;29;20196;-79
2023/03/18 07:43:47;;;;;;;6.85;6.05;;;;;;;;;;4902813;29;20182;-79
2023/03/18 07:46:13;;;;;;;7.40;6.57;;;;;;;;;;4901887;29;20517;-79
2023/03/18 07:48:39;;;;;;;7.18;6.47;;;;;;;;;;4919281;29;20179;-79
2023/03/18 07:51:05;;;;;;;9.00;6.15;;;;;;;;;;4919175;29;20182;-79
2023/03/18 07:53:32;;;;;;;7.25;5.97;;;;;;;;;;4904350;29;20736;-79
2023/03/18 07:55:59;;;;;;;5.47;4.97;;;;;;;;;;4923148;29;20183;-79
2023/03/18 07:58:25;;;;;;;10.05;5.30;;;;;;;;;;4905322;29;20240;-79
2023/03/18 08:00:52;;;;;;;9.48;5.90;;;;;;;;;;4922848;29;20181;-79
2023/03/18 08:03:18;;;;;;;8.90;5.97;;;;;;;;;;4905314;29;20194;-79
2023/03/18 08:05:44;;;;;;;6.22;5.13;;;;;;;;;;4922261;29;20186;-79
2023/03/18 08:08:10;;;;;;;6.80;5.15;;;;;;;;;;4923061;29;20182;-79
2023/03/18 08:10:36;;;;;;;6.15;5.13;;;;;;;;;;4922827;29;20261;-79
2023/03/18 08:13:02;;;;;;;7.83;5.83;;;;;;;;;;4922205;29;20739;-79
2023/03/18 08:15:29;;;;;;;6.30;5.20;;;;;;;;;;4905118;29;20441;-79
2023/03/18 08:17:55;;;;;;;7.45;5.13;;;;;;;;;;4922730;29;20178;-79
2023/03/18 08:20:21;;;;;;;5.78;4.53;;;;;;;;;;4922236;29;20246;-79
2023/03/18 08:22:48;;;;;;;4.85;4.20;;;;;;;;;;4922519;29;20546;-79
2023/03/18 08:25:15;;;;;;;6.53;4.40;;;;;;;;;;4922175;29;20187;-79
2023/03/18 08:27:41;;;;;;;7.40;4.40;;;;;;;;;;4922084;29;20422;-79
2023/03/18 08:30:07;;;;;;;6.07;4.20;;;;;;;;;;4921938;29;20403;-79
2023/03/18 08:32:33;;;;;;;6.83;3.97;;;;;;;;;;4921963;29;20480;-79
2023/03/18 08:35:00;;;;;;;5.47;4.50;;;;;;;;;;4922320;29;20418;-79
2023/03/18 08:37:27;;;;;;;4.60;3.43;;;;;;;;;;4921332;29;20971;-79
2023/03/18 08:39:53;;;;;;;3.83;2.67;;;;;;;;;;4905213;29;20422;-79
2023/03/18 08:42:19;;;;;;;7.30;3.00;;;;;;;;;;4921544;29;20454;-79
2023/03/18 08:44:45;;;;;;;4.10;2.60;;;;;;;;;;4921918;29;20448;-78
2023/03/18 08:47:11;;;;;;;3.43;2.83;;;;;;;;;;4921719;29;20415;-79
2023/03/18 08:49:38;;;;;;;5.23;2.33;;;;;;;;;;4904822;29;20422;-79
2023/03/18 08:52:05;;;;;;;3.30;2.87;;;;;;;;;;4921657;29;20477;-79
2023/03/18 08:54:31;;;;;;;5.30;3.00;;;;;;;;;;4921153;29;20385;-79
2023/03/18 08:56:59;;;;;;;6.07;2.73;;;;;;;;;;4921376;29;20440;-79
2023/03/18 08:59:25;;;;;;;6.30;2.43;;;;;;;;;;4921406;29;20411;-79
2023/03/18 09:01:52;;;;;;;5.13;3.23;;;;;;;;;;4921555;29;20790;-79
2023/03/18 09:04:19;;;;;;;4.37;2.83;;;;;;;;;;4920395;29;20414;-80
2023/03/18 09:06:45;;;;;;;4.03;2.80;;;;;;;;;;4904433;29;20506;-79
2023/03/18 09:09:11;;;;;;;3.60;2.53;;;;;;;;;;4904472;29;20464;-79
2023/03/18 09:11:38;;;;;;;4.13;3.10;;;;;;;;;;4920843;29;20962;-79
2023/03/18 09:14:04;;;;;;;2.83;2.33;;;;;;;;;;4921246;29;20420;-79
2023/03/18 09:16:30;;;;;;;3.27;2.50;;;;;;;;;;4904191;29;20415;-79
2023/03/18 09:18:56;;;;;;;5.03;2.80;;;;;;;;;;4888305;29;20950;-79
2023/03/18 09:21:22;;;;;;;3.33;2.40;;;;;;;;;;4903510;29;20397;-80
2023/03/18 09:23:49;;;;;;;4.60;2.37;;;;;;;;;;4920851;29;20843;-79
2023/03/18 09:26:15;;;;;;;3.13;2.70;;;;;;;;;;4920170;29;20422;-80
2023/03/18 09:28:41;;;;;;;4.20;2.40;;;;;;;;;;4903577;29;20422;-79
2023/03/18 09:31:07;;;;;;;2.73;2.30;;;;;;;;;;4920036;29;20514;-79
2023/03/18 09:33:35;;;;;;;4.63;2.30;;;;;;;;;;4920023;29;20587;-80
2023/03/18 09:36:03;;;;;;;3.43;1.97;;;;;;;;;;4902822;29;20489;-79
2023/03/18 09:38:30;;;;;;;4.30;2.27;;;;;;;;;;4919709;29;20437;-80
2023/03/18 09:41:15;;;;;;;2.13;1.93;;;;;;;;;;4902836;29;20422;-79
2023/03/18 09:43:47;;;;;;;2.30;1.90;;;;;;;;;;4920053;29;20387;-80
2023/03/18 09:46:24;;;;;;;2.63;1.60;;;;;;;;;;4919392;29;20382;-80
2023/03/18 09:48:56;;;;;;;3.30;1.90;;;;;;;;;;4919334;29;20407;-80
2023/03/18 09:51:42;;;;;;;3.30;1.97;;;;;;;;;;4901867;29;20483;-80
2023/03/18 09:54:08;;;;;;;3.37;1.93;;;;;;;;;;4918972;29;20415;-80
2023/03/18 09:56:35;;;;;;;2.20;1.77;;;;;;;;;;4918910;29;20389;-79
2023/03/18 09:59:22;;;;;;;2.57;1.90;;;;;;;;;;4919014;29;20452;-79
2023/03/18 10:01:50;;;;;;;2.00;1.73;;;;;;;;;;4918809;29;20420;-80
2023/03/18 10:04:22;;;;;;;2.30;2.10;;;;;;;;;;4919122;29;20438;-79
2023/03/18 10:06:50;;;;;;;2.70;1.67;;;;;;;;;;4918895;29;20449;-80
2023/03/18 10:09:19;;;;;;;2.47;2.07;;;;;;;;;;4919097;29;20444;-80
2023/03/18 10:11:51;;;;;;;3.00;1.80;;;;;;;;;;4918937;29;20521;-80
2023/03/18 10:14:23;;;;;;;2.63;1.90;;;;;;;;;;4918961;29;20975;-79
2023/03/18 10:16:55;;;;;;;1.93;1.83;;;;;;;;;;4919230;29;20388;-80
2023/03/18 10:19:21;;;;;;;3.47;2.03;;;;;;;;;;4901707;29;20422;-79
2023/03/18 10:21:50;;;;;;;2.30;2.00;;;;;;;;;;4901418;29;20426;-80
2023/03/18 10:24:36;;;;;;;2.30;1.70;;;;;;;;;;4901234;29;20524;-79
2023/03/18 10:27:09;;;;;;;2.43;1.60;;;;;;;;;;4918536;29;20413;-79
2023/03/18 10:29:58;;;;;;;2.20;1.77;;;;;;;;;;4918126;29;20442;-80
2023/03/18 10:32:31;;;;;;;1.77;1.50;;;;;;;;;;4905386;29;20453;-79
2023/03/18 10:35:16;;;;;;;2.23;1.60;;;;;;;;;;4917699;29;20436;-79
2023/03/18 10:37:56;;;;;;;5.57;1.80;;;;;;;;;;4900681;29;20522;-79
2023/03/18 10:40:23;;;;;;;1.77;1.63;;;;;;;;;;4917483;29;20393;-80
2023/03/18 10:42:52;;;;;;;2.07;1.60;;;;;;;;;;4900570;29;20914;-80
2023/03/18 10:45:22;;;;;;;3.20;1.43;;;;;;;;;;4917261;29;20422;-79
2023/03/18 10:47:56;;;;;;;1.50;1.33;;;;;;;;;;4917802;29;20421;-80
2023/03/18 10:50:33;;;;;;;1.43;1.33;;;;;;;;;;4917340;29;20434;-80
2023/03/18 10:53:02;;;;;;;2.70;1.70;;;;;;;;;;4900408;29;20477;-79
2023/03/18 10:55:30;;;;;;;2.10;1.40;;;;;;;;;;4917211;29;20414;-80
2023/03/18 10:57:56;;;;;;;3.03;1.50;;;;;;;;;;4900192;29;20915;-79
2023/03/18 11:00:32;;;;;;;1.47;1.27;;;;;;;;;;4917117;29;20425;-79
2023/03/18 11:02:59;;;;;;;1.93;1.53;;;;;;;;;;4900152;29;20436;-79
2023/03/18 11:05:32;;;;;;;2.70;1.80;;;;;;;;;;4917005;29;20427;-79
2023/03/18 11:07:59;;;;;;;1.57;1.47;;;;;;;;;;4917637;29;20476;-79
2023/03/18 11:10:29;;;;;;;2.37;1.63;;;;;;;;;;4916756;29;20425;-79
2023/03/18 11:12:59;;;;;;;4.30;1.60;;;;;;;;;;4917116;29;20607;-79
2023/03/18 11:15:25;;;;;;;3.23;1.93;;;;;;;;;;4917098;29;20411;-79
2023/03/18 11:17:51;;;;;;;3.97;2.57;;;;;;;;;;4900608;29;20421;-79
2023/03/18 11:20:23;;;;;;;3.27;1.43;;;;;;;;;;4899941;29;20418;-79
2023/03/18 11:22:51;;;;;;;3.37;1.10;;;;;;;;;;4916976;29;20426;-79
2023/03/18 11:25:23;;;;;;;2.50;1.53;;;;;;;;;;4917157;29;20859;-79
2023/03/18 11:27:52;;;;;;;1.47;1.37;;;;;;;;;;4920091;29;20410;-79
2023/03/18 11:30:23;;;;;;;2.00;1.30;;;;;;;;;;4923134;29;20407;-79
2023/03/18 11:32:54;;;;;;;1.80;1.40;;;;;;;;;;4923292;29;20808;-79
2023/03/18 11:35:43;;;;;;;7.20;1.67;;;;;;;;;;4922984;29;20425;-79
2023/03/18 11:38:14;;;;;;;2.83;2.07;;;;;;;;;;4910891;29;20453;-79
2023/03/18 11:40:41;;;;;;;3.90;1.73;;;;;;;;;;4923092;29;20417;-79
2023/03/18 11:43:15;;;;;;;2.77;1.67;;;;;;;;;;4923115;29;20425;-79
2023/03/18 11:45:51;;;;;;;4.30;1.50;;;;;;;;;;4923309;29;20381;-79
2023/03/18 11:48:28;;;;;;;3.57;1.57;;;;;;;;;;4923063;29;20881;-79
2023/03/18 11:50:57;;;;;;;3.30;2.00;;;;;;;;;;4923264;29;20524;-79
2023/03/18 11:53:30;;;;;;;4.10;1.87;;;;;;;;;;4923056;29;20475;-80
2023/03/18 11:56:16;;;;;;;2.50;1.50;;;;;;;;;;4923037;29;20406;-79
2023/03/18 11:58:53;;;;;;;2.50;1.30;;;;;;;;;;4922968;29;20398;-79
2023/03/18 12:01:28;;;;;;;2.50;1.50;;;;;;;;;;4923205;29;20468;-79
2023/03/18 12:04:12;;;;;;;1.70;1.37;;;;;;;;;;4923414;29;20390;-79
2023/03/18 12:06:59;;;;;;;3.43;1.27;;;;;;;;;;4922846;29;20424;-79
2023/03/18 12:09:37;;;;;;;2.13;1.20;;;;;;;;;;4906959;29;20918;-80
2023/03/18 12:12:07;;;;;;;2.23;1.20;;;;;;;;;;4906184;29;20484;-79
2023/03/18 12:14:40;;;;;;;2.13;1.57;;;;;;;;;;4905774;29;20396;-79
2023/03/18 12:17:06;;;;;;;1.90;1.40;;;;;;;;;;4922750;29;20455;-78
2023/03/18 12:19:44;;;;;;;4.77;1.10;;;;;;;;;;4922876;29;20397;-78
2023/03/18 12:22:29;;;;;;;1.93;1.70;;;;;;;;;;4923021;29;20430;-78
2023/03/18 12:25:04;;;;;;;4.40;1.60;;;;;;;;;;4922976;29;20420;-78
2023/03/18 12:27:33;;;;;;;1.60;1.23;;;;;;;;;;4922416;29;20487;-78
2023/03/18 12:30:05;;;;;;;2.30;1.30;;;;;;;;;;4905927;29;20433;-78
2023/03/18 12:32:58;;;;;;;3.53;1.37;;;;;;;;;;4905478;29;20500;-78
2023/03/18 12:35:30;;;;;;;3.43;1.50;;;;;;;;;;4880770;29;20476;-78
2023/03/18 12:38:05;;;;;;;4.67;1.80;;;;;;;;;;4922618;29;20450;-78
2023/03/18 12:40:49;;;;;;;1.70;1.00;;;;;;;;;;4918577;29;20410;-79
2023/03/18 12:43:29;;;;;;;2.30;1.40;;;;;;;;;;4919966;29;20749;-78
2023/03/18 12:46:03;;;;;;;2.33;1.30;;;;;;;;;;4919856;29;20402;-78
2023/03/18 12:48:33;;;;;;;2.80;1.30;;;;;;;;;;4919347;29;20779;-78
2023/03/18 12:51:06;;;;;;;2.60;1.10;;;;;;;;;;4902912;29;20477;-78
2023/03/18 12:53:37;;;;;;;1.87;1.40;;;;;;;;;;4919691;29;20454;-78
2023/03/18 12:56:07;;;;;;;4.10;1.40;;;;;;;;;;4919325;29;20414;-79
2023/03/18 12:58:45;;;;;;;3.33;1.43;;;;;;;;;;4919172;29;20410;-79
2023/03/18 13:01:16;;;;;;;2.27;1.20;;;;;;;;;;4919881;29;20417;-79
2023/03/18 13:03:46;;;;;;;3.03;1.40;;;;;;;;;;4919414;29;20415;-78
2023/03/18 13:06:23;;;;;;;4.13;1.60;;;;;;;;;;4919295;29;20479;-79
2023/03/18 13:08:58;;;;;;;1.17;1.07;;;;;;;;;;4919467;29;20409;-78
2023/03/18 13:11:47;;;;;;;1.63;1.27;;;;;;;;;;4919173;29;20400;-78
2023/03/18 13:14:32;;;;;;;4.40;1.80;;;;;;;;;;4919435;29;20434;-78
2023/03/18 13:16:59;;;;;;;4.60;1.63;;;;;;;;;;4919554;29;20408;-78
2023/03/18 13:19:26;;;;;;;3.30;1.53;;;;;;;;;;4919211;29;20410;-78
2023/03/18 13:21:57;;;;;;;3.23;1.43;;;;;;;;;;4919031;29;20531;-78
2023/03/18 13:24:41;;;;;;;5.30;1.47;;;;;;;;;;4919426;29;20418;-78
2023/03/18 13:27:33;;;;;;;4.83;1.77;;;;;;;;;;4919317;29;20817;-78
2023/03/18 13:30:19;;;;;;;5.63;1.80;;;;;;;;;;4883336;29;20670;-78
2023/03/18 13:33:05;;;;;;;6.10;2.30;;;;;;;;;;4901700;29;20441;-78
2023/03/18 13:35:43;;;;;;;6.93;3.40;;;;;;;;;;4918684;29;20461;-77
2023/03/18 13:38:12;;;;;;;5.43;2.43;;;;;;;;;;4919055;29;20443;-77
2023/03/18 13:40:51;;;;;;;5.10;2.17;;;;;;;;;;4918676;29;20422;-77
2023/03/18 13:43:18;;;;;;;5.97;2.20;;;;;;;;;;4919232;29;20419;-77
2023/03/18 13:45:46;;;;;;;4.10;2.20;;;;;;;;;;4918926;29;20410;-77
2023/03/18 13:48:18;;;;;;;4.17;2.00;;;;;;;;;;4919235;29;20414;-77
2023/03/18 13:50:45;;;;;;;11.07;2.80;;;;;;;;;;4919030;29;20403;-77
2023/03/18 13:53:23;;;;;;;4.73;2.87;;;;;;;;;;4918756;29;20513;-77
2023/03/18 13:55:59;;;;;;;9.33;4.60;;;;;;;;;;4919375;29;20429;-77
2023/03/18 13:58:32;;;;;;;7.23;2.07;;;;;;;;;;4901863;29;20462;-77
2023/03/18 14:01:14;;;;;;;4.57;2.47;;;;;;;;;;4918744;29;20836;-77
2023/03/18 14:03:43;;;;;;;11.97;3.27;;;;;;;;;;4918801;29;20429;-77
2023/03/18 14:06:09;;;;;;;6.07;2.07;;;;;;;;;;4918861;29;20422;-77
2023/03/18 14:08:38;;;;;;;9.67;2.60;;;;;;;;;;4918743;29;20419;-77
2023/03/18 14:11:16;;;;;;;4.47;2.70;;;;;;;;;;4918604;29;20414;-77
2023/03/18 14:13:52;;;;;;;5.50;2.80;;;;;;;;;;4918215;29;20494;-78
2023/03/18 14:16:42;;;;;;;6.77;3.20;;;;;;;;;;4918609;29;20417;-78
2023/03/18 14:19:10;;;;;;;7.30;3.20;;;;;;;;;;4906680;29;20491;-78
2023/03/18 14:21:46;;;;;;;8.50;2.50;;;;;;;;;;4918538;29;20550;-78
2023/03/18 14:24:20;;;;;;;4.73;3.83;;;;;;;;;;4918553;29;20424;-78
2023/03/18 14:27:07;;;;;;;9.80;4.23;;;;;;;;;;4918406;29;20438;-77
2023/03/18 14:29:46;;;;;;;5.47;2.90;;;;;;;;;;4902577;29;20494;-77
2023/03/18 14:32:31;;;;;;;5.30;2.50;;;;;;;;;;4918316;29;20985;-77
2023/03/18 14:34:59;;;;;;;4.03;2.57;;;;;;;;;;4918103;29;20395;-77
2023/03/18 14:37:27;;;;;;;6.00;3.63;;;;;;;;;;4918101;29;20484;-77
2023/03/18 14:39:55;;;;;;;2.33;1.80;;;;;;;;;;4917669;29;20385;-77
2023/03/18 14:42:35;;;;;;;5.10;3.33;;;;;;;;;;4917816;29;20410;-77
2023/03/18 14:45:09;;;;;;;3.60;2.00;;;;;;;;;;4917703;29;20922;-77
2023/03/18 14:47:45;;;;;;;5.87;2.00;;;;;;;;;;4918000;29;20377;-78
2023/03/18 14:50:19;;;;;;;6.43;1.77;;;;;;;;;;4918160;29;20384;-78
2023/03/18 14:52:51;;;;;;;5.33;1.83;;;;;;;;;;4917540;29;20464;-78